Time;durP1;ratioP1;P1;durP2;ratioP2;P2;SDS_P1;SDS_P2;PMS_P1;PMS_P2;Temp;Humidity;BMP_temperature;BMP_pressure;BME280_temperature;BME280_humidity;BME280_pressure;Samples;Min_cycle;Max_cycle;Signal;HPM_P1;HPM_P2
2022/09/04 00:00:10;;;;;;;7.00;2.50;;;15.10;99.90;;;;;;5063910;28;20497;-77
2022/09/04 00:03:06;;;;;;;4.35;2.50;;;15.10;99.90;;;;;;5063884;28;20028;-77
2022/09/04 00:05:44;;;;;;;5.97;2.80;;;15.00;99.90;;;;;;5056278;28;20073;-79
2022/09/04 00:08:31;;;;;;;5.60;3.05;;;15.00;99.90;;;;;;5068909;28;20074;-77
2022/09/04 00:11:03;;;;;;;9.05;3.25;;;14.90;99.90;;;;;;5058755;28;20346;-77
2022/09/04 00:13:36;;;;;;;13.75;3.58;;;14.90;99.90;;;;;;5067883;28;20044;-78
2022/09/04 00:16:19;;;;;;;6.32;3.60;;;14.90;99.90;;;;;;5066376;28;20090;-77
2022/09/04 00:18:48;;;;;;;4.93;2.97;;;14.80;99.90;;;;;;5061684;28;20104;-78
2022/09/04 00:21:26;;;;;;;6.90;2.70;;;14.90;99.90;;;;;;5062400;28;20083;-78
2022/09/04 00:23:59;;;;;;;6.43;3.22;;;14.80;99.90;;;;;;5060922;28;20110;-77
2022/09/04 00:26:49;;;;;;;6.35;3.42;;;14.80;99.90;;;;;;5060965;28;20033;-77
2022/09/04 00:29:24;;;;;;;6.35;2.97;;;14.90;99.90;;;;;;5065629;28;20104;-78
2022/09/04 00:31:57;;;;;;;5.95;2.58;;;14.90;99.90;;;;;;5060142;28;20032;-77
2022/09/04 00:34:29;;;;;;;8.13;2.75;;;15.00;99.90;;;;;;5061298;28;20029;-77
2022/09/04 00:37:03;;;;;;;8.85;3.00;;;15.00;99.90;;;;;;5062835;28;20040;-77
2022/09/04 00:39:42;;;;;;;13.05;3.55;;;15.00;99.90;;;;;;5063090;28;20436;-78
2022/09/04 00:42:30;;;;;;;4.90;2.67;;;15.10;99.90;;;;;;5061941;28;20032;-77
2022/09/04 00:45:08;;;;;;;4.97;2.53;;;15.10;99.90;;;;;;5064997;28;20052;-77
2022/09/04 00:47:47;;;;;;;5.20;2.83;;;15.10;99.90;;;;;;5061882;28;20029;-78
2022/09/04 00:50:15;;;;;;;7.93;3.13;;;15.20;99.90;;;;;;5059027;28;20041;-78
2022/09/04 00:52:56;;;;;;;8.65;3.55;;;15.30;99.90;;;;;;5064718;28;20562;-77
2022/09/04 00:55:24;;;;;;;4.60;2.42;;;15.30;99.90;;;;;;5064953;28;20427;-77
2022/09/04 00:58:03;;;;;;;4.20;2.80;;;15.30;99.90;;;;;;5063070;28;20036;-77
2022/09/04 01:00:29;;;;;;;6.55;3.35;;;15.40;99.90;;;;;;5067683;28;20024;-79
2022/09/04 01:03:27;;;;;;;6.22;3.20;;;15.40;99.90;;;;;;5063381;28;20435;-77
2022/09/04 01:06:19;;;;;;;6.63;3.22;;;15.40;99.90;;;;;;5062225;28;20040;-77
2022/09/04 01:09:01;;;;;;;14.43;3.75;;;15.40;99.90;;;;;;5063695;28;20037;-79
2022/09/04 01:12:00;;;;;;;7.32;2.78;;;15.40;99.90;;;;;;5055111;28;20055;-78
2022/09/04 01:14:47;;;;;;;6.95;3.28;;;15.40;99.90;;;;;;5068480;28;20489;-77
2022/09/04 01:17:51;;;;;;;4.70;2.80;;;15.50;99.90;;;;;;5062348;28;20107;-77
2022/09/04 01:20:38;;;;;;;4.85;2.72;;;15.50;99.90;;;;;;5066710;28;20041;-77
2022/09/04 01:23:34;;;;;;;4.57;2.63;;;15.50;99.90;;;;;;5067212;28;20108;-77
2022/09/04 01:26:26;;;;;;;3.65;2.75;;;15.50;99.90;;;;;;5063340;28;20110;-78
2022/09/04 01:29:22;;;;;;;6.13;3.25;;;15.50;99.90;;;;;;5068772;28;20469;-77
2022/09/04 01:32:04;;;;;;;3.65;2.67;;;15.60;99.90;;;;;;5060415;28;20028;-77
2022/09/04 01:34:29;;;;;;;6.32;3.33;;;15.60;99.90;;;;;;5059354;28;20052;-78
2022/09/04 01:37:03;;;;;;;6.13;2.50;;;15.60;99.90;;;;;;5068675;28;20082;-77
2022/09/04 01:39:32;;;;;;;3.58;2.70;;;15.60;99.90;;;;;;5052345;28;20037;-78
2022/09/04 01:42:13;;;;;;;7.50;3.13;;;15.60;99.90;;;;;;5067486;28;20476;-77
2022/09/04 01:44:39;;;;;;;5.07;3.08;;;15.60;99.90;;;;;;5065219;28;20384;-78
2022/09/04 01:47:29;;;;;;;4.63;3.05;;;15.60;99.90;;;;;;5065794;28;20024;-78
2022/09/04 01:50:18;;;;;;;4.72;2.63;;;15.60;99.90;;;;;;5066869;28;20299;-77
2022/09/04 01:52:43;;;;;;;4.90;3.05;;;15.60;99.90;;;;;;5069700;28;20028;-78
2022/09/04 01:55:35;;;;;;;5.00;2.90;;;15.60;99.90;;;;;;5067998;28;20027;-78
2022/09/04 01:58:01;;;;;;;4.03;2.65;;;15.60;99.90;;;;;;5067164;28;20036;-79
2022/09/04 02:00:32;;;;;;;4.80;2.72;;;15.60;99.90;;;;;;5059290;28;20472;-78
2022/09/04 02:03:05;;;;;;;5.78;3.30;;;15.60;99.90;;;;;;5063248;28;20031;-78
2022/09/04 02:06:00;;;;;;;9.52;3.08;;;15.60;99.90;;;;;;5065630;28;20381;-78
2022/09/04 02:08:42;;;;;;;5.32;2.95;;;15.70;99.90;;;;;;5066116;28;20548;-77
2022/09/04 02:11:25;;;;;;;7.03;3.10;;;15.70;99.90;;;;;;5067536;28;20063;-77
2022/09/04 02:14:16;;;;;;;6.72;3.33;;;15.70;99.90;;;;;;5064155;28;20135;-78
2022/09/04 02:16:59;;;;;;;3.90;2.20;;;15.70;99.90;;;;;;5065450;28;20020;-78
2022/09/04 02:19:42;;;;;;;10.90;3.10;;;15.70;99.90;;;;;;5068854;28;20098;-78
2022/09/04 02:22:32;;;;;;;6.82;2.92;;;15.70;99.90;;;;;;5065329;28;20035;-78
2022/09/04 02:25:03;;;;;;;6.43;3.10;;;15.70;99.90;;;;;;5061215;28;20029;-78
2022/09/04 02:28:03;;;;;;;5.32;2.97;;;15.70;99.90;;;;;;5067933;28;20024;-78
2022/09/04 02:30:41;;;;;;;6.22;3.05;;;15.60;99.90;;;;;;5062605;28;20032;-79
2022/09/04 02:33:19;;;;;;;4.07;2.75;;;15.50;99.90;;;;;;5068159;28;20107;-77
2022/09/04 02:36:03;;;;;;;5.88;2.85;;;15.50;99.90;;;;;;5060660;28;20032;-79
2022/09/04 02:38:39;;;;;;;5.53;2.63;;;15.60;99.90;;;;;;5067206;28;20013;-78
2022/09/04 02:41:27;;;;;;;;;;;15.60;99.90;;;;;;5061958;28;20190;-78
2022/09/04 02:44:30;;;;;;;6.72;3.10;;;15.60;99.90;;;;;;5065923;28;19924;-78
2022/09/04 02:47:04;;;;;;;4.32;2.75;;;15.50;99.90;;;;;;5058720;28;20067;-77
2022/09/04 02:49:41;;;;;;;4.20;2.40;;;15.50;99.90;;;;;;5066511;28;20473;-78
2022/09/04 02:52:32;;;;;;;4.10;2.53;;;15.50;99.90;;;;;;5058382;28;20025;-77
2022/09/04 02:55:33;;;;;;;5.78;3.35;;;15.50;99.90;;;;;;5061857;28;20113;-77
2022/09/04 02:58:14;;;;;;;8.07;3.38;;;15.50;99.90;;;;;;5065122;28;20472;-78
2022/09/04 03:01:08;;;;;;;5.82;3.38;;;15.40;99.90;;;;;;5065549;28;20028;-77
2022/09/04 03:04:11;;;;;;;5.63;2.90;;;15.40;99.90;;;;;;5063963;28;20516;-78
2022/09/04 03:06:43;;;;;;;3.00;2.40;;;15.40;99.90;;;;;;5036269;28;20040;-77
2022/09/04 03:09:18;;;;;;;5.45;3.03;;;15.40;99.90;;;;;;5063303;28;20446;-77
2022/09/04 03:11:58;;;;;;;10.82;3.75;;;15.30;99.90;;;;;;5059106;28;20020;-78
2022/09/04 03:14:41;;;;;;;4.78;2.58;;;15.30;99.90;;;;;;5064608;28;20032;-78
2022/09/04 03:17:36;;;;;;;11.25;3.05;;;15.30;99.90;;;;;;5068500;28;20350;-78
2022/09/04 03:20:20;;;;;;;5.88;2.95;;;15.20;99.90;;;;;;5057780;28;20401;-79
2022/09/04 03:22:56;;;;;;;5.95;3.72;;;15.20;99.90;;;;;;5064410;28;20377;-78
2022/09/04 03:25:48;;;;;;;;;;;15.10;99.90;;;;;;5065603;28;20033;-78
2022/09/04 03:28:44;;;;;;;6.38;3.45;;;15.10;99.90;;;;;;5066939;28;19909;-78
2022/09/04 03:31:30;;;;;;;;;;;15.10;99.90;;;;;;5062387;28;20048;-78
2022/09/04 03:34:23;;;;;;;5.20;2.85;;;15.10;99.90;;;;;;5059466;28;19913;-77
2022/09/04 03:37:27;;;;;;;7.32;3.38;;;15.10;99.90;;;;;;5062644;28;20082;-78
2022/09/04 03:40:11;;;;;;;7.47;3.70;;;15.00;99.90;;;;;;5061797;28;20037;-77
2022/09/04 03:43:14;;;;;;;5.63;3.17;;;15.00;99.90;;;;;;5065983;28;20481;-80
2022/09/04 03:45:50;;;;;;;5.00;2.70;;;15.00;99.90;;;;;;5065535;28;20036;-78
2022/09/04 03:48:21;;;;;;;;;;;15.00;99.90;;;;;;5064160;28;20032;-79
2022/09/04 03:50:55;;;;;;;3.58;2.55;;;15.00;99.90;;;;;;5065665;28;20280;-78
2022/09/04 03:53:50;;;;;;;4.90;3.00;;;15.00;99.90;;;;;;5060687;28;20378;-77
2022/09/04 03:56:31;;;;;;;4.13;3.25;;;15.00;99.90;;;;;;5062361;28;20028;-78
2022/09/04 03:59:07;;;;;;;4.75;3.00;;;15.00;99.90;;;;;;5061712;28;20032;-78
2022/09/04 04:02:00;;;;;;;5.35;3.05;;;15.00;99.90;;;;;;5064828;28;20028;-77
2022/09/04 04:04:59;;;;;;;4.22;2.90;;;15.00;99.90;;;;;;5061994;28;20048;-78
2022/09/04 04:07:51;;;;;;;7.10;3.47;;;14.90;99.90;;;;;;5065714;28;20035;-78
2022/09/04 04:10:38;;;;;;;4.88;3.40;;;14.90;99.90;;;;;;5066227;28;20020;-78
2022/09/04 04:13:25;;;;;;;4.20;2.90;;;14.90;99.90;;;;;;5063701;28;20020;-78
2022/09/04 04:16:29;;;;;;;6.25;3.28;;;14.90;99.90;;;;;;5064943;28;20409;-78
2022/09/04 04:19:09;;;;;;;7.65;2.88;;;14.90;99.90;;;;;;5059686;28;20120;-78
2022/09/04 04:21:54;;;;;;;4.75;3.17;;;14.90;99.90;;;;;;5063018;28;20043;-77
2022/09/04 04:25:10;;;;;;;4.72;2.92;;;14.90;99.90;;;;;;5066721;28;20101;-77
2022/09/04 04:27:51;;;;;;;4.35;3.10;;;14.90;99.90;;;;;;5024430;28;20036;-77
2022/09/04 04:30:18;;;;;;;7.03;3.20;;;14.90;99.90;;;;;;5024911;28;20076;-78
2022/09/04 04:33:08;;;;;;;6.50;3.05;;;14.90;99.90;;;;;;5044979;28;20123;-79
2022/09/04 04:36:00;;;;;;;5.88;3.08;;;14.90;99.90;;;;;;5064020;28;20025;-78
2022/09/04 04:38:43;;;;;;;4.63;2.88;;;14.90;99.90;;;;;;5061907;28;20039;-78
2022/09/04 04:41:20;;;;;;;4.63;2.90;;;14.90;99.90;;;;;;5067260;28;20028;-77
2022/09/04 04:44:10;;;;;;;4.32;2.72;;;14.90;99.90;;;;;;5065877;28;20059;-78
2022/09/04 04:47:14;;;;;;;10.02;3.15;;;14.90;99.90;;;;;;5064834;28;20040;-77
2022/09/04 04:50:14;;;;;;;8.20;3.70;;;14.90;99.90;;;;;;5067116;28;20059;-77
2022/09/04 04:53:02;;;;;;;5.50;2.90;;;14.80;99.90;;;;;;5068471;28;20075;-77
2022/09/04 04:55:52;;;;;;;5.03;3.42;;;14.80;99.90;;;;;;5069398;28;20031;-77
2022/09/04 04:58:36;;;;;;;5.65;3.75;;;14.80;99.90;;;;;;5067342;28;20040;-77
2022/09/04 05:01:33;;;;;;;8.82;3.13;;;14.80;99.90;;;;;;5071910;28;20037;-77
2022/09/04 05:04:16;;;;;;;4.18;3.00;;;14.80;99.90;;;;;;5068856;28;20083;-78
2022/09/04 05:06:53;;;;;;;9.50;2.90;;;14.80;99.90;;;;;;5066267;28;20037;-77
2022/09/04 05:09:46;;;;;;;6.75;2.83;;;14.80;99.90;;;;;;5067401;28;20028;-77
2022/09/04 05:12:56;;;;;;;6.85;3.17;;;14.80;99.90;;;;;;5061634;28;20256;-78
2022/09/04 05:15:51;;;;;;;6.30;3.05;;;14.80;99.90;;;;;;5028162;28;20075;-77
2022/09/04 05:18:24;;;;;;;8.30;3.53;;;14.80;99.90;;;;;;5067631;28;20028;-77
2022/09/04 05:21:00;;;;;;;5.32;3.05;;;14.90;99.90;;;;;;5069838;28;20055;-77
2022/09/04 05:23:43;;;;;;;4.10;2.60;;;14.90;99.90;;;;;;5066025;28;20033;-77
2022/09/04 05:26:31;;;;;;;3.25;2.50;;;14.90;99.90;;;;;;5067239;28;20124;-77
2022/09/04 05:29:06;;;;;;;3.70;2.75;;;15.00;99.90;;;;;;5068080;28;20046;-78
2022/09/04 05:31:54;;;;;;;3.38;2.60;;;15.00;99.90;;;;;;5068178;28;20039;-77
2022/09/04 05:34:35;;;;;;;6.13;3.17;;;15.00;99.90;;;;;;5068015;28;20054;-78
2022/09/04 05:37:18;;;;;;;6.00;3.28;;;15.00;99.90;;;;;;5057002;28;20024;-77
2022/09/04 05:39:53;;;;;;;6.93;3.05;;;15.10;99.90;;;;;;5069021;28;20031;-77
2022/09/04 05:42:41;;;;;;;6.18;3.38;;;15.10;99.90;;;;;;5066290;28;20138;-77
2022/09/04 05:45:18;;;;;;;5.55;3.88;;;15.10;99.90;;;;;;5068838;28;20093;-77
2022/09/04 05:47:57;;;;;;;5.00;3.08;;;15.10;99.90;;;;;;5069980;28;20075;-78
2022/09/04 05:50:45;;;;;;;11.40;3.55;;;15.10;99.90;;;;;;5062448;28;20032;-77
2022/09/04 05:53:29;;;;;;;6.80;3.53;;;15.10;99.90;;;;;;5065475;28;20029;-76
2022/09/04 05:56:29;;;;;;;6.90;3.58;;;15.20;99.90;;;;;;5067737;28;20033;-77
2022/09/04 05:59:01;;;;;;;4.68;3.22;;;15.20;99.90;;;;;;5050677;28;20490;-77
2022/09/04 06:01:49;;;;;;;5.93;3.08;;;15.30;99.90;;;;;;5065392;28;20029;-76
2022/09/04 06:04:53;;;;;;;4.57;2.95;;;15.30;99.90;;;;;;5062502;28;20051;-77
2022/09/04 06:07:49;;;;;;;6.55;3.70;;;15.30;99.90;;;;;;5070610;28;20028;-77
2022/09/04 06:10:48;;;;;;;7.72;3.90;;;15.40;99.90;;;;;;5067554;28;20043;-77
2022/09/04 06:14:11;;;;;;;7.18;3.97;;;15.40;99.90;;;;;;5062342;28;20128;-77
2022/09/04 06:17:00;;;;;;;5.55;3.10;;;15.40;99.90;;;;;;5022669;28;20032;-76
2022/09/04 06:19:52;;;;;;;7.85;3.70;;;15.40;99.90;;;;;;5027979;28;20121;-77
2022/09/04 06:22:40;;;;;;;4.80;3.47;;;15.40;99.90;;;;;;5060618;28;20043;-77
2022/09/04 06:25:35;;;;;;;7.80;3.92;;;15.40;99.90;;;;;;5038292;28;20040;-76
2022/09/04 06:28:12;;;;;;;3.83;3.28;;;15.40;99.90;;;;;;5062346;28;20060;-77
2022/09/04 06:30:53;;;;;;;7.32;4.30;;;15.40;99.90;;;;;;5069111;28;20052;-76
2022/09/04 06:33:29;;;;;;;7.35;4.15;;;15.40;99.90;;;;;;5068358;28;20037;-76
2022/09/04 06:36:15;;;;;;;5.10;3.50;;;15.40;99.90;;;;;;5065788;28;20126;-77
2022/09/04 06:38:53;;;;;;;7.25;3.65;;;15.40;99.90;;;;;;5061832;28;20040;-77
2022/09/04 06:42:03;;;;;;;10.60;4.82;;;15.40;99.90;;;;;;5053787;28;20102;-77
2022/09/04 06:44:43;;;;;;;12.98;5.13;;;15.40;99.90;;;;;;5063971;28;20048;-77
2022/09/04 06:47:27;;;;;;;5.60;3.72;;;15.40;99.90;;;;;;5064733;28;20070;-77
2022/09/04 06:50:16;;;;;;;11.23;4.38;;;15.50;99.90;;;;;;5068943;28;20073;-77
2022/09/04 06:53:01;;;;;;;6.82;3.95;;;15.50;99.90;;;;;;5062876;28;20424;-77
2022/09/04 06:55:45;;;;;;;9.43;4.40;;;15.50;99.90;;;;;;5063910;28;20029;-77
2022/09/04 06:58:55;;;;;;;6.55;4.88;;;15.50;99.90;;;;;;5061082;28;20116;-77
2022/09/04 07:01:45;;;;;;;8.18;4.10;;;15.60;99.90;;;;;;5060594;28;20025;-77
2022/09/04 07:04:38;;;;;;;5.43;4.13;;;15.60;99.90;;;;;;5063755;28;20052;-77
2022/09/04 07:07:27;;;;;;;8.07;4.45;;;15.70;99.90;;;;;;5058628;28;20032;-77
2022/09/04 07:10:01;;;;;;;10.15;4.85;;;15.70;99.90;;;;;;5069086;28;20377;-77
2022/09/04 07:12:45;;;;;;;13.32;5.50;;;15.80;99.90;;;;;;5064816;28;20112;-77
2022/09/04 07:15:41;;;;;;;7.45;5.05;;;15.80;99.90;;;;;;5070309;28;20107;-77
2022/09/04 07:18:37;;;;;;;13.75;4.40;;;15.90;99.90;;;;;;5062626;28;20054;-77
2022/09/04 07:21:23;;;;;;;16.60;4.82;;;15.90;99.90;;;;;;5067852;28;20036;-76
2022/09/04 07:23:58;;;;;;;10.57;5.20;;;16.00;99.90;;;;;;5060011;28;20021;-77
2022/09/04 07:26:31;;;;;;;11.85;5.00;;;16.10;99.90;;;;;;5070076;28;20059;-77
2022/09/04 07:29:18;;;;;;;5.70;4.22;;;16.10;99.90;;;;;;5062294;28;20024;-77
2022/09/04 07:32:00;;;;;;;9.25;4.70;;;16.20;99.90;;;;;;5068472;28;20036;-78
2022/09/04 07:35:07;;;;;;;7.85;4.57;;;16.30;99.90;;;;;;5067557;28;20050;-77
2022/09/04 07:37:57;;;;;;;11.95;5.40;;;16.40;99.90;;;;;;5064896;28;20048;-78
2022/09/04 07:40:31;;;;;;;9.75;4.63;;;16.50;99.90;;;;;;5064268;28;20021;-77
2022/09/04 07:43:20;;;;;;;15.20;4.90;;;16.50;99.90;;;;;;5065899;28;20060;-78
2022/09/04 07:45:53;;;;;;;16.48;4.85;;;16.60;99.90;;;;;;5068202;28;20064;-77
2022/09/04 07:48:28;;;;;;;16.23;5.05;;;16.60;99.90;;;;;;5063536;28;20107;-77
2022/09/04 07:51:12;;;;;;;13.93;4.97;;;16.70;99.90;;;;;;5064817;28;20033;-77
2022/09/04 07:53:58;;;;;;;11.20;5.00;;;16.80;99.90;;;;;;5061218;28;20035;-77
2022/09/04 07:57:03;;;;;;;8.57;5.07;;;16.80;99.90;;;;;;5061490;28;20032;-77
2022/09/04 07:59:35;;;;;;;12.15;4.63;;;16.90;99.90;;;;;;5057244;28;20494;-79
2022/09/04 08:02:19;;;;;;;15.05;5.68;;;17.00;99.90;;;;;;5067220;28;20378;-78
2022/09/04 08:04:45;;;;;;;11.90;5.95;;;17.00;99.90;;;;;;5062457;28;20041;-78
2022/09/04 08:07:36;;;;;;;12.63;4.95;;;17.10;99.90;;;;;;5066933;28;20033;-79
2022/09/04 08:10:31;;;;;;;9.77;4.70;;;17.10;99.90;;;;;;5047053;28;20105;-78
2022/09/04 08:13:08;;;;;;;10.52;5.00;;;17.20;99.90;;;;;;5063681;28;20027;-78
2022/09/04 08:15:42;;;;;;;12.38;6.80;;;17.30;99.90;;;;;;5068374;28;20481;-78
2022/09/04 08:18:15;;;;;;;13.35;5.40;;;17.30;99.90;;;;;;5053317;28;20054;-81
2022/09/04 08:20:46;;;;;;;9.73;5.45;;;17.40;99.90;;;;;;5064551;28;20024;-78
2022/09/04 08:23:11;;;;;;;10.23;5.25;;;17.50;99.90;;;;;;5064999;28;20127;-77
2022/09/04 08:26:13;;;;;;;7.50;4.63;;;17.50;99.90;;;;;;5068709;28;20119;-79
2022/09/04 08:29:01;;;;;;;14.25;5.97;;;17.60;99.90;;;;;;5069615;28;20093;-79
2022/09/04 08:31:54;;;;;;;11.63;5.65;;;17.60;99.90;;;;;;5067089;28;20074;-79
2022/09/04 08:35:13;;;;;;;8.20;5.20;;;17.70;99.90;;;;;;5062766;28;20329;-78
2022/09/04 08:37:41;;;;;;;7.75;4.95;;;17.80;99.90;;;;;;5045201;28;20341;-78
2022/09/04 08:40:28;;;;;;;12.38;5.45;;;17.80;99.90;;;;;;5044087;28;20021;-78
2022/09/04 08:43:35;;;;;;;9.15;5.15;;;17.90;99.90;;;;;;5062846;28;20063;-78
2022/09/04 08:46:20;;;;;;;13.50;5.15;;;18.00;99.90;;;;;;5069576;28;20094;-79
2022/09/04 08:49:18;;;;;;;11.85;5.35;;;18.10;99.90;;;;;;5062589;28;20035;-78
2022/09/04 08:51:46;;;;;;;17.10;5.50;;;18.10;99.90;;;;;;5066805;28;20047;-78
2022/09/04 08:54:15;;;;;;;10.05;4.78;;;18.20;99.90;;;;;;5067054;28;20040;-78
2022/09/04 08:57:04;;;;;;;11.95;5.53;;;18.20;99.90;;;;;;5063750;28;20376;-78
2022/09/04 08:59:39;;;;;;;9.73;6.05;;;18.30;99.90;;;;;;5053588;28;20045;-79
2022/09/04 09:02:32;;;;;;;9.43;5.50;;;18.40;99.90;;;;;;5063595;28;20024;-81
2022/09/04 09:05:28;;;;;;;9.13;5.20;;;18.50;99.90;;;;;;5067512;28;20525;-81
2022/09/04 09:08:22;;;;;;;15.85;5.45;;;18.60;99.90;;;;;;5065099;28;20476;-80
2022/09/04 09:11:00;;;;;;;12.48;5.47;;;18.80;99.90;;;;;;5069120;28;20712;-76
2022/09/04 09:13:48;;;;;;;11.52;5.82;;;18.80;99.90;;;;;;5058687;28;20025;-76
2022/09/04 09:16:21;;;;;;;11.13;5.38;;;18.90;99.90;;;;;;5062214;28;20043;-79
2022/09/04 09:19:12;;;;;;;11.30;5.40;;;18.90;99.90;;;;;;5063539;28;20041;-77
2022/09/04 09:22:16;;;;;;;11.80;5.13;;;19.00;99.90;;;;;;5063602;28;20024;-76
2022/09/04 09:24:56;;;;;;;8.65;4.78;;;19.10;99.90;;;;;;5068234;28;20439;-76
2022/09/04 09:27:54;;;;;;;8.68;4.75;;;19.10;99.90;;;;;;5066059;28;20052;-78
2022/09/04 09:30:21;;;;;;;13.00;5.55;;;19.20;99.90;;;;;;5066158;28;20048;-77
2022/09/04 09:32:56;;;;;;;9.40;5.85;;;19.30;99.90;;;;;;5067075;28;20028;-78
2022/09/04 09:35:51;;;;;;;9.02;5.30;;;19.40;99.90;;;;;;5061253;28;20481;-77
2022/09/04 09:38:23;;;;;;;12.18;5.47;;;19.50;99.90;;;;;;5064265;28;20072;-78
2022/09/04 09:41:07;;;;;;;10.30;5.32;;;19.50;99.90;;;;;;5066514;28;20016;-78
2022/09/04 09:43:40;;;;;;;10.52;5.05;;;19.60;99.90;;;;;;5065839;28;20029;-78
2022/09/04 09:46:35;;;;;;;13.48;4.80;;;19.60;99.90;;;;;;5065858;28;20178;-77
2022/09/04 09:49:19;;;;;;;10.00;4.70;;;19.70;99.90;;;;;;5061762;28;20608;-78
2022/09/04 09:52:17;;;;;;;10.95;5.60;;;19.80;99.90;;;;;;5061993;28;20111;-78
2022/09/04 09:55:17;;;;;;;8.57;5.38;;;19.90;99.90;;;;;;5060393;28;20024;-78
2022/09/04 09:58:20;;;;;;;11.38;4.80;;;20.00;99.90;;;;;;5064460;28;20032;-77
2022/09/04 10:01:10;;;;;;;11.20;4.70;;;20.10;99.90;;;;;;5063941;28;20067;-78
2022/09/04 10:03:38;;;;;;;9.63;4.85;;;20.20;99.90;;;;;;5061403;28;20131;-77
2022/09/04 10:06:27;;;;;;;9.93;5.57;;;20.30;99.90;;;;;;5066084;28;20405;-77
2022/09/04 10:09:23;;;;;;;9.98;5.50;;;20.30;99.90;;;;;;5058245;28;20029;-76
2022/09/04 10:12:09;;;;;;;8.05;5.30;;;20.50;99.90;;;;;;5068161;28;20039;-77
2022/09/04 10:14:56;;;;;;;13.68;5.38;;;20.50;99.90;;;;;;5063724;28;20827;-77
2022/09/04 10:17:25;;;;;;;12.25;5.15;;;20.60;99.90;;;;;;5068049;28;20052;-78
2022/09/04 10:20:07;;;;;;;10.93;4.70;;;20.70;99.90;;;;;;5065614;28;20028;-77
2022/09/04 10:22:45;;;;;;;8.77;4.60;;;20.80;99.90;;;;;;5057717;28;20110;-79
2022/09/04 10:25:40;;;;;;;8.00;4.60;;;20.90;99.90;;;;;;5063312;28;20059;-78
2022/09/04 10:28:08;;;;;;;15.67;6.27;;;21.00;99.90;;;;;;5066352;28;20480;-83
2022/09/04 10:30:47;;;;;;;14.80;4.45;;;21.00;99.90;;;;;;5069665;28;20016;-81
2022/09/04 10:33:21;;;;;;;15.32;5.22;;;21.10;99.90;;;;;;5061132;28;20532;-80
2022/09/04 10:35:53;;;;;;;8.77;4.57;;;21.20;99.90;;;;;;5066977;28;20048;-78
2022/09/04 10:38:27;;;;;;;13.57;4.53;;;21.30;99.90;;;;;;5059069;28;20028;-78
2022/09/04 10:41:09;;;;;;;9.85;4.47;;;21.40;99.90;;;;;;5062877;28;20028;-78
2022/09/04 10:43:37;;;;;;;11.82;4.32;;;21.40;99.90;;;;;;5062366;28;20025;-80
2022/09/04 10:46:36;;;;;;;11.20;4.72;;;21.40;99.90;;;;;;5068216;28;20051;-79
2022/09/04 10:49:26;;;;;;;7.38;4.30;;;21.50;99.90;;;;;;5062469;28;20078;-79
2022/09/04 10:52:29;;;;;;;7.90;4.05;;;21.50;99.90;;;;;;5067183;28;20033;-79
2022/09/04 10:55:05;;;;;;;7.35;4.22;;;21.50;99.90;;;;;;5064506;28;20016;-78
2022/09/04 10:57:52;;;;;;;12.18;4.75;;;21.60;99.90;;;;;;5065032;28;20036;-82
2022/09/04 11:00:20;;;;;;;6.75;4.00;;;21.70;99.90;;;;;;5060798;28;20028;-78
2022/09/04 11:03:20;;;;;;;11.30;4.18;;;21.70;99.90;;;;;;5063523;28;20033;-79
2022/09/04 11:06:17;;;;;;;7.85;4.15;;;21.80;99.90;;;;;;5062473;28;20036;-79
2022/09/04 11:09:14;;;;;;;7.70;4.45;;;21.80;99.90;;;;;;5063532;28;20138;-78
2022/09/04 11:12:30;;;;;;;13.38;4.65;;;21.80;99.90;;;;;;5060108;28;20037;-78
2022/09/04 11:15:18;;;;;;;11.18;4.32;;;21.90;99.90;;;;;;5027021;28;20471;-78
2022/09/04 11:18:05;;;;;;;14.57;4.57;;;22.00;99.90;;;;;;5067571;28;20078;-78
2022/09/04 11:20:46;;;;;;;8.18;3.55;;;22.00;99.90;;;;;;5061198;28;20105;-79
2022/09/04 11:23:20;;;;;;;8.48;4.03;;;22.10;99.90;;;;;;5067915;28;20031;-77
2022/09/04 11:26:16;;;;;;;6.30;4.18;;;22.10;99.90;;;;;;5069581;28;20047;-78
2022/09/04 11:28:55;;;;;;;13.75;4.35;;;22.00;99.90;;;;;;5062876;28;20030;-78
2022/09/04 11:31:55;;;;;;;5.97;3.88;;;22.00;99.90;;;;;;5061938;28;20082;-77
2022/09/04 11:34:55;;;;;;;11.07;4.15;;;21.90;99.90;;;;;;5061756;28;20070;-77
2022/09/04 11:37:39;;;;;;;4.07;3.25;;;21.90;99.90;;;;;;5065791;28;20037;-79
2022/09/04 11:40:26;;;;;;;8.85;3.67;;;21.90;99.90;;;;;;5061082;28;20210;-78
2022/09/04 11:43:07;;;;;;;6.68;2.90;;;22.00;99.90;;;;;;5065373;28;20023;-76
2022/09/04 11:45:54;;;;;;;8.73;3.35;;;22.10;99.90;;;;;;5065667;28;20040;-78
2022/09/04 11:48:43;;;;;;;8.32;4.00;;;22.10;99.90;;;;;;5067217;28;20024;-78
2022/09/04 11:51:17;;;;;;;8.43;4.60;;;22.10;99.90;;;;;;5063164;28;20024;-78
2022/09/04 11:54:11;;;;;;;8.70;3.08;;;22.10;99.90;;;;;;5057206;28;20478;-78
2022/09/04 11:56:52;;;;;;;7.80;3.20;;;22.20;99.90;;;;;;5064205;28;20546;-78
2022/09/04 11:59:36;;;;;;;8.15;4.03;;;22.30;99.90;;;;;;5064365;28;20032;-78
2022/09/04 12:02:23;;;;;;;10.05;3.60;;;22.30;99.90;;;;;;5062413;28;20024;-79
2022/09/04 12:05:11;;;;;;;6.70;3.42;;;22.40;99.90;;;;;;5061296;28;20044;-77
2022/09/04 12:08:01;;;;;;;9.35;3.50;;;22.60;99.90;;;;;;5066032;28;20552;-78
2022/09/04 12:10:49;;;;;;;11.20;3.72;;;22.60;99.90;;;;;;5068404;28;20162;-77
2022/09/04 12:13:38;;;;;;;6.97;2.95;;;22.80;99.90;;;;;;5067880;28;20087;-78
2022/09/04 12:16:26;;;;;;;8.90;3.55;;;22.90;99.90;;;;;;5062874;28;20528;-78
2022/09/04 12:19:23;;;;;;;10.40;3.00;;;22.90;99.90;;;;;;5066330;28;20036;-78
2022/09/04 12:22:15;;;;;;;4.85;3.25;;;22.90;99.90;;;;;;5055299;28;20045;-78
2022/09/04 12:25:37;;;;;;;4.07;3.17;;;22.80;99.90;;;;;;5063288;28;20028;-77
2022/09/04 12:28:09;;;;;;;6.13;3.08;;;22.70;99.90;;;;;;5018737;28;20033;-78
2022/09/04 12:31:12;;;;;;;9.23;3.30;;;22.70;99.90;;;;;;5023473;28;20112;-78
2022/09/04 12:34:11;;;;;;;12.05;3.10;;;22.70;99.90;;;;;;5057108;28;20126;-78
2022/09/04 12:36:50;;;;;;;8.82;3.17;;;22.70;99.90;;;;;;5060617;28;20033;-78
2022/09/04 12:39:25;;;;;;;6.40;2.88;;;22.70;99.90;;;;;;5063453;28;20074;-78
2022/09/04 12:42:02;;;;;;;6.05;3.20;;;22.60;99.90;;;;;;5066823;28;20021;-77
2022/09/04 12:44:40;;;;;;;4.97;2.60;;;22.60;99.90;;;;;;5062435;28;20048;-78
2022/09/04 12:47:14;;;;;;;8.27;3.20;;;22.50;99.90;;;;;;5059952;28;20056;-77
2022/09/04 12:50:03;;;;;;;5.10;3.10;;;22.50;99.90;;;;;;5062151;28;20016;-77
2022/09/04 12:52:56;;;;;;;8.82;2.97;;;22.50;99.90;;;;;;5056878;28;20063;-79
2022/09/04 12:56:01;;;;;;;9.45;3.13;;;22.60;99.90;;;;;;5061397;28;20029;-77
2022/09/04 12:58:32;;;;;;;5.78;3.30;;;22.60;99.90;;;;;;5061541;28;20028;-77
2022/09/04 13:01:13;;;;;;;8.48;2.58;;;22.50;99.90;;;;;;5059823;28;20025;-77
2022/09/04 13:03:57;;;;;;;6.85;3.22;;;22.50;99.90;;;;;;5062203;28;20045;-77
2022/09/04 13:06:34;;;;;;;6.03;3.38;;;22.50;99.90;;;;;;5059045;28;20068;-77
2022/09/04 13:09:41;;;;;;;8.30;2.95;;;22.50;99.90;;;;;;5069680;28;20099;-78
2022/09/04 13:12:47;;;;;;;5.43;2.97;;;22.50;99.90;;;;;;5032948;28;20045;-78
2022/09/04 13:15:37;;;;;;;8.77;2.78;;;22.70;99.90;;;;;;5045897;28;20185;-77
2022/09/04 13:18:20;;;;;;;9.20;3.17;;;22.80;99.90;;;;;;5064862;28;20036;-77
2022/09/04 13:21:07;;;;;;;7.80;2.53;;;22.90;99.90;;;;;;5068381;28;20036;-77
2022/09/04 13:23:36;;;;;;;3.60;2.60;;;23.10;99.90;;;;;;5069756;28;20078;-77
2022/09/04 13:26:35;;;;;;;6.13;3.05;;;23.20;99.90;;;;;;5063192;28;20063;-77
2022/09/04 13:29:22;;;;;;;10.10;2.63;;;23.30;99.90;;;;;;5060874;28;20538;-78
2022/09/04 13:32:14;;;;;;;5.70;2.35;;;23.40;99.90;;;;;;5062359;28;20241;-77
2022/09/04 13:35:08;;;;;;;5.47;2.88;;;23.50;99.90;;;;;;5064906;28;20123;-77
2022/09/04 13:37:58;;;;;;;2.63;2.42;;;23.70;99.90;;;;;;5065074;28;20031;-77
2022/09/04 13:41:04;;;;;;;9.25;2.80;;;23.80;99.90;;;;;;5067636;28;20107;-77
2022/09/04 13:43:54;;;;;;;5.70;2.28;;;23.80;99.90;;;;;;5065110;28;20025;-77
2022/09/04 13:46:28;;;;;;;4.53;2.78;;;23.80;99.90;;;;;;5062747;28;20059;-77
2022/09/04 13:49:02;;;;;;;3.72;2.60;;;23.70;99.90;;;;;;5062222;28;20031;-77
2022/09/04 13:51:36;;;;;;;10.00;2.97;;;23.60;99.90;;;;;;5065719;28;20028;-77
2022/09/04 13:54:12;;;;;;;6.10;2.08;;;23.60;99.90;;;;;;5060797;28;20492;-77
2022/09/04 13:56:45;;;;;;;12.07;3.13;;;23.70;99.90;;;;;;5071577;28;20194;-77
2022/09/04 13:59:16;;;;;;;11.20;3.15;;;23.60;99.90;;;;;;5062087;28;20521;-76
2022/09/04 14:01:47;;;;;;;4.18;2.83;;;23.50;99.90;;;;;;5069062;28;20449;-77
2022/09/04 14:04:25;;;;;;;6.13;2.92;;;23.50;99.90;;;;;;5053464;28;20379;-77
2022/09/04 14:07:04;;;;;;;10.52;3.05;;;23.40;99.90;;;;;;5063513;28;20115;-77
2022/09/04 14:09:41;;;;;;;6.70;2.58;;;23.40;99.90;;;;;;5061237;28;20032;-77
2022/09/04 14:12:26;;;;;;;6.75;2.97;;;23.40;99.90;;;;;;5049622;28;20149;-78
2022/09/04 14:15:27;;;;;;;7.90;3.10;;;23.40;99.90;;;;;;5053496;28;20036;-77
2022/09/04 14:18:20;;;;;;;10.30;3.92;;;23.50;99.90;;;;;;5068971;28;20274;-77